Time,TemperatureF,DewpointF,PressureIn,WindDirection,WindDirectionDegrees,WindSpeedMPH,WindSpeedGustMPH,Humidity,HourlyPrecipIn,Conditions,Clouds,dailyrainin,SolarRadiationWatts/m^2,SoftwareType,DateUTC
2013-06-23 00:22:00,53.0,52.0,-100.00,North,2,1.0,2.0,95,0.00,,,0.22,0.000000,,2013-06-23 08:22:00,
2013-06-23 00:33:00,53.0,52.0,-100.00,North,2,1.0,2.0,95,0.00,,,0.22,0.000000,,2013-06-23 08:33:00,
2013-06-23 00:42:00,53.0,52.0,-100.00,North,2,1.0,2.0,95,0.00,,,0.22,0.000000,,2013-06-23 08:42:00,
2013-06-23 00:53:00,53.0,52.0,-100.00,North,2,1.0,2.0,95,0.00,,,0.22,0.000000,,2013-06-23 08:53:00,
2013-06-23 01:34:00,53.0,52.0,-100.00,NNW,338,0.0,1.0,95,0.00,,,0.19,0.000000,,2013-06-23 09:34:00,
2013-06-23 01:43:00,53.0,52.0,-100.00,NNW,338,0.0,1.0,95,0.00,,,0.19,0.000000,,2013-06-23 09:43:00,
2013-06-23 01:53:00,53.0,52.0,-100.00,NNW,338,0.0,1.0,95,0.00,,,0.19,0.000000,,2013-06-23 09:53:00,
2013-06-23 02:22:00,52.0,51.0,-100.00,North,353,1.0,4.0,96,0.00,,,0.16,0.000000,,2013-06-23 10:22:00,
2013-06-23 02:34:00,52.0,51.0,-100.00,North,353,1.0,4.0,96,0.00,,,0.16,0.000000,,2013-06-23 10:34:00,
2013-06-23 02:43:00,52.0,51.0,-100.00,North,353,1.0,4.0,96,0.00,,,0.16,0.000000,,2013-06-23 10:43:00,
2013-06-23 02:52:00,52.0,51.0,-100.00,North,353,1.0,4.0,96,0.00,,,0.16,0.000000,,2013-06-23 10:52:00,
2013-06-23 03:22:00,52.0,51.0,-100.00,NNW,333,3.0,4.0,96,0.00,,,0.10,0.000000,,2013-06-23 11:22:00,
2013-06-23 03:33:00,52.0,51.0,-100.00,NNW,333,3.0,4.0,96,0.00,,,0.10,0.000000,,2013-06-23 11:33:00,
2013-06-23 03:43:00,52.0,51.0,-100.00,NNW,333,3.0,4.0,96,0.00,,,0.10,0.000000,,2013-06-23 11:43:00,
2013-06-23 03:53:00,52.0,51.0,-100.00,NNW,333,3.0,4.0,96,0.00,,,0.10,0.000000,,2013-06-23 11:53:00,
2013-06-23 04:22:00,52.0,51.0,-100.00,NE,50,2.0,4.0,95,0.00,,,0.07,0.000000,,2013-06-23 12:22:00,
2013-06-23 04:33:00,52.0,51.0,-100.00,NE,50,2.0,4.0,95,0.00,,,0.07,0.000000,,2013-06-23 12:33:00,
2013-06-23 04:42:00,52.0,51.0,-100.00,NE,50,2.0,4.0,95,0.00,,,0.07,0.000000,,2013-06-23 12:42:00,
2013-06-23 04:53:00,52.0,51.0,-100.00,NE,50,2.0,4.0,95,0.00,,,0.07,0.000000,,2013-06-23 12:53:00,
2013-06-23 05:34:00,52.0,50.0,-100.00,North,353,0.0,4.0,94,0.00,,,0.06,11.000000,,2013-06-23 13:34:00,
2013-06-23 05:43:00,52.0,50.0,-100.00,North,353,0.0,4.0,94,0.00,,,0.06,11.000000,,2013-06-23 13:43:00,
2013-06-23 05:53:00,52.0,50.0,-100.00,North,353,0.0,4.0,94,0.00,,,0.06,11.000000,,2013-06-23 13:53:00,
2013-06-23 06:44:00,53.0,51.0,-100.00,NW,316,0.0,4.0,93,0.00,,,0.06,32.000000,,2013-06-23 14:44:00,
2013-06-23 06:52:00,53.0,51.0,-100.00,NW,316,0.0,4.0,93,0.00,,,0.06,32.000000,,2013-06-23 14:52:00,
2013-06-23 07:22:00,54.0,52.0,-100.00,North,358,2.0,5.0,92,0.00,,,0.05,63.000000,,2013-06-23 15:22:00,
2013-06-23 07:35:00,54.0,52.0,-100.00,North,358,2.0,5.0,92,0.00,,,0.05,63.000000,,2013-06-23 15:35:00,
2013-06-23 07:43:00,54.0,52.0,-100.00,North,358,2.0,5.0,92,0.00,,,0.05,63.000000,,2013-06-23 15:43:00,
2013-06-23 07:52:00,54.0,52.0,-100.00,North,358,2.0,5.0,92,0.00,,,0.05,63.000000,,2013-06-23 15:52:00,
2013-06-23 08:22:00,56.0,53.0,-100.00,North,4,4.0,7.0,90,0.00,,,0.05,107.000000,,2013-06-23 16:22:00,
2013-06-23 08:36:00,56.0,53.0,-100.00,North,4,4.0,7.0,90,0.00,,,0.05,107.000000,,2013-06-23 16:36:00,
2013-06-23 08:42:00,56.0,53.0,-100.00,North,4,4.0,7.0,90,0.00,,,0.05,107.000000,,2013-06-23 16:42:00,
2013-06-23 08:52:00,56.0,53.0,-100.00,North,4,4.0,7.0,90,0.00,,,0.05,107.000000,,2013-06-23 16:52:00,
2013-06-23 09:22:00,57.0,52.0,-100.00,NNE,19,5.0,8.0,84,0.00,,,0.02,200.000000,,2013-06-23 17:22:00,
2013-06-23 09:33:00,57.0,52.0,-100.00,NNE,19,5.0,8.0,84,0.00,,,0.02,200.000000,,2013-06-23 17:33:00,
2013-06-23 09:43:00,57.0,52.0,-100.00,NNE,19,5.0,8.0,84,0.00,,,0.02,200.000000,,2013-06-23 17:43:00,
2013-06-23 09:52:00,57.0,52.0,-100.00,NNE,19,5.0,8.0,84,0.00,,,0.02,200.000000,,2013-06-23 17:52:00,
2013-06-23 10:22:00,58.0,53.0,-100.00,NNW,348,5.0,8.0,82,0.00,,,0.00,279.000000,,2013-06-23 18:22:00,
2013-06-23 10:34:00,58.0,53.0,-100.00,NNW,348,5.0,8.0,82,0.00,,,0.00,279.000000,,2013-06-23 18:34:00,
2013-06-23 10:42:00,58.0,53.0,-100.00,NNW,348,5.0,8.0,82,0.00,,,0.00,279.000000,,2013-06-23 18:42:00,
2013-06-23 10:53:00,58.0,53.0,-100.00,NNW,348,5.0,8.0,82,0.00,,,0.00,279.000000,,2013-06-23 18:53:00,
2013-06-23 11:32:00,61.0,54.0,-100.00,North,350,4.0,7.0,79,0.00,,,0.00,350.000000,,2013-06-23 19:32:00,
2013-06-23 11:43:00,61.0,54.0,-100.00,North,350,4.0,7.0,79,0.00,,,0.00,350.000000,,2013-06-23 19:43:00,
2013-06-23 11:53:00,61.0,54.0,-100.00,North,350,4.0,7.0,79,0.00,,,0.00,350.000000,,2013-06-23 19:53:00,
2013-06-23 12:23:00,63.0,53.0,-100.00,North,353,5.0,8.0,70,0.00,,,0.00,477.000000,,2013-06-23 20:23:00,
2013-06-23 12:33:00,63.0,53.0,-100.00,North,353,5.0,8.0,70,0.00,,,0.00,477.000000,,2013-06-23 20:33:00,
2013-06-23 12:42:00,63.0,53.0,-100.00,North,353,5.0,8.0,70,0.00,,,0.00,477.000000,,2013-06-23 20:42:00,
2013-06-23 12:52:00,63.0,53.0,-100.00,North,353,5.0,8.0,70,0.00,,,0.00,477.000000,,2013-06-23 20:52:00,
2013-06-23 13:33:00,63.0,53.0,-100.00,North,359,6.0,9.0,71,0.00,,,0.00,435.000000,,2013-06-23 21:33:00,
2013-06-23 13:44:00,63.0,53.0,-100.00,North,359,6.0,9.0,71,0.00,,,0.00,435.000000,,2013-06-23 21:44:00,
2013-06-23 13:52:00,63.0,53.0,-100.00,North,359,6.0,9.0,71,0.00,,,0.00,435.000000,,2013-06-23 21:52:00,
2013-06-23 14:32:00,65.0,53.0,-100.00,NNE,12,7.0,10.0,66,0.00,,,0.00,548.000000,,2013-06-23 22:32:00,
2013-06-23 14:43:00,65.0,53.0,-100.00,NNE,12,7.0,10.0,66,0.00,,,0.00,548.000000,,2013-06-23 22:43:00,
2013-06-23 14:53:00,65.0,53.0,-100.00,NNE,12,7.0,10.0,66,0.00,,,0.00,548.000000,,2013-06-23 22:53:00,
2013-06-23 16:22:00,65.0,50.0,-100.00,NNW,337,8.0,13.0,59,-99.99,,,0.00,574.000000,,2013-06-24 00:22:00,
2013-06-23 16:33:00,65.0,50.0,-100.00,NNW,337,8.0,13.0,59,-99.99,,,0.00,574.000000,,2013-06-24 00:33:00,
2013-06-23 16:42:00,65.0,50.0,-100.00,NNW,337,8.0,13.0,59,-99.99,,,0.00,574.000000,,2013-06-24 00:42:00,
2013-06-23 16:52:00,65.0,50.0,-100.00,NNW,337,8.0,13.0,59,-99.99,,,0.00,574.000000,,2013-06-24 00:52:00,
2013-06-23 17:22:00,67.0,52.0,-100.00,North,357,9.0,13.0,58,0.00,,,0.00,446.000000,,2013-06-24 01:22:00,
2013-06-23 17:32:00,67.0,52.0,-100.00,North,357,9.0,13.0,58,0.00,,,0.00,446.000000,,2013-06-24 01:32:00,
2013-06-23 17:42:00,67.0,52.0,-100.00,North,357,9.0,13.0,58,0.00,,,0.00,446.000000,,2013-06-24 01:42:00,
2013-06-23 17:52:00,67.0,52.0,-100.00,North,357,9.0,13.0,58,0.00,,,0.00,446.000000,,2013-06-24 01:52:00,
2013-06-23 18:22:00,68.0,51.0,-100.00,NNW,348,7.0,13.0,54,0.00,,,0.00,468.000000,,2013-06-24 02:22:00,
2013-06-23 18:33:00,68.0,51.0,-100.00,NNW,348,7.0,13.0,54,0.00,,,0.00,468.000000,,2013-06-24 02:33:00,
2013-06-23 18:42:00,68.0,51.0,-100.00,NNW,348,7.0,13.0,54,0.00,,,0.00,468.000000,,2013-06-24 02:42:00,
2013-06-23 18:53:00,68.0,51.0,-100.00,NNW,348,7.0,13.0,54,0.00,,,0.00,468.000000,,2013-06-24 02:53:00,
2013-06-23 19:22:00,67.0,50.0,-100.00,North,351,7.0,12.0,54,0.00,,,0.00,278.000000,,2013-06-24 03:22:00,
2013-06-23 19:33:00,67.0,50.0,-100.00,North,351,7.0,12.0,54,0.00,,,0.00,278.000000,,2013-06-24 03:33:00,
2013-06-23 19:43:00,67.0,50.0,-100.00,North,351,7.0,12.0,54,0.00,,,0.00,278.000000,,2013-06-24 03:43:00,
2013-06-23 19:53:00,67.0,50.0,-100.00,North,351,7.0,12.0,54,0.00,,,0.00,278.000000,,2013-06-24 03:53:00,
2013-06-23 20:22:00,65.0,49.0,-100.00,North,357,6.0,11.0,57,0.00,,,0.00,123.000000,,2013-06-24 04:22:00,
2013-06-23 20:33:00,65.0,49.0,-100.00,North,357,6.0,11.0,57,0.00,,,0.00,123.000000,,2013-06-24 04:33:00,
2013-06-23 20:43:00,65.0,49.0,-100.00,North,357,6.0,11.0,57,0.00,,,0.00,123.000000,,2013-06-24 04:43:00,
2013-06-23 20:52:00,65.0,49.0,-100.00,North,357,6.0,11.0,57,0.00,,,0.00,123.000000,,2013-06-24 04:52:00,
2013-06-23 21:22:00,63.0,49.0,-100.00,North,356,5.0,9.0,60,0.00,,,0.00,30.000000,,2013-06-24 05:22:00,
2013-06-23 21:35:00,63.0,49.0,-100.00,North,356,5.0,9.0,60,0.00,,,0.00,30.000000,,2013-06-24 05:35:00,
2013-06-23 21:43:00,63.0,49.0,-100.00,North,356,5.0,9.0,60,0.00,,,0.00,30.000000,,2013-06-24 05:43:00,
2013-06-23 21:53:00,63.0,49.0,-100.00,North,356,5.0,9.0,60,0.00,,,0.00,30.000000,,2013-06-24 05:53:00,
2013-06-23 22:23:00,59.0,48.0,-100.00,NNW,332,4.0,7.0,68,-99.99,,,0.00,12.000000,,2013-06-24 06:23:00,
2013-06-23 22:34:00,59.0,48.0,-100.00,NNW,332,4.0,7.0,68,-99.99,,,0.00,12.000000,,2013-06-24 06:34:00,
2013-06-23 22:43:00,59.0,48.0,-100.00,NNW,332,4.0,7.0,68,-99.99,,,0.00,12.000000,,2013-06-24 06:43:00,
2013-06-23 22:52:00,59.0,48.0,-100.00,NNW,332,4.0,7.0,68,-99.99,,,0.00,12.000000,,2013-06-24 06:52:00,
2013-06-23 23:27:00,58.0,49.0,-100.00,NNW,329,4.0,6.0,72,0.00,,,0.00,1.000000,,2013-06-24 07:27:00,
2013-06-23 23:34:00,58.0,49.0,-100.00,NNW,329,4.0,6.0,72,0.00,,,0.00,1.000000,,2013-06-24 07:34:00,
2013-06-23 23:46:00,58.0,49.0,-100.00,NNW,329,4.0,6.0,72,0.00,,,0.00,1.000000,,2013-06-24 07:46:00,
2013-06-23 23:53:00,58.0,49.0,-100.00,NNW,329,4.0,6.0,72,0.00,,,0.00,1.000000,,2013-06-24 07:53:00,